Harrison, Montana
Current Conditions -  °F | °C
As of 11:56 PM on Wednesday 22 Oct 2014 (Local Time) from KBZN Reporting Station
Clear Clear  
Wind Chill: 29°   Ceiling: Unl
Heat Index: 36°   Visibility: 10mi
Dew Point: 29°   Wind: 9mph
Humidity: 76%   Direction: 150°SSE
Pressure: 30.02"   Gusts: NA
Location:  45.7°N, 111.78°W
Report Text: KBZN 230556Z AUTO 15008KT 10SM CLR 02/M02 A3002 RMK AO2 SLP171 T00221017 10122 20000 58005
Loading
Personal Weather Stations






























Interactive Weather Map
Tropical Storm Tracking
New forecast layout! Learn more

10-Day Weather Forecast

Advertisements
Track Severe Weather on mobile